Time;durP1;ratioP1;P1;durP2;ratioP2;P2;SDS_P1;SDS_P2;PMS_P1;PMS_P2;Temp;Humidity;BMP_temperature;BMP_pressure;BME280_temperature;BME280_humidity;BME280_pressure;Samples;Min_cycle;Max_cycle;Signal;HPM_P1;HPM_P2
2021/01/24 00:04:37;;;;;;;16.12;10.68;;;;;;;2.25;76.37;97980.27;3694078;79;30247;-64
2021/01/24 00:09:42;;;;;;;14.15;10.43;;;;;;;2.22;77.05;97982.55;3703054;79;30194;-65
2021/01/24 00:14:45;;;;;;;13.62;10.50;;;;;;;2.27;76.94;97988.73;3702588;79;30139;-65
2021/01/24 00:19:49;;;;;;;13.28;10.15;;;;;;;2.26;76.97;97987.64;3702534;79;30251;-65
2021/01/24 00:24:53;;;;;;;15.08;11.78;;;;;;;2.25;77.21;97988.16;3702296;79;28884;-65
2021/01/24 00:29:58;;;;;;;20.17;12.50;;;;;;;2.21;77.54;97988.31;3703842;79;30103;-65
2021/01/24 00:35:01;;;;;;;15.88;9.73;;;;;;;2.22;77.91;97982.55;3702393;79;30100;-66
2021/01/24 00:40:07;;;;;;;13.70;8.40;;;;;;;2.22;78.19;97983.86;3612373;81;29993;-63
2021/01/24 00:45:11;;;;;;;13.85;9.05;;;;;;;2.08;78.21;97983.25;3644825;79;30178;-65
2021/01/24 00:50:15;;;;;;;12.43;8.38;;;;;;;1.97;78.82;97977.43;3701321;79;27368;-64
2021/01/24 00:55:20;;;;;;;14.55;10.20;;;;;;;1.87;79.44;97976.64;3716975;79;28720;-66
2021/01/24 01:00:24;;;;;;;12.20;9.68;;;;;;;1.95;79.43;97977.66;3669337;79;30104;-65
2021/01/24 01:05:26;;;;;;;13.28;9.90;;;;;;;2.00;79.14;97969.91;3717355;79;28191;-65
2021/01/24 01:10:30;;;;;;;12.23;10.37;;;;;;;2.03;79.34;97963.41;3717079;79;26781;-64
2021/01/24 01:15:33;;;;;;;10.55;6.80;;;;;;;2.00;79.24;97963.84;3705154;79;30413;-64
2021/01/24 01:20:37;;;;;;;14.03;10.18;;;;;;;1.93;79.43;97955.24;3717158;79;30166;-66
2021/01/24 01:25:40;;;;;;;13.95;10.45;;;;;;;1.92;79.55;97949.70;3706522;79;30189;-65
2021/01/24 01:30:43;;;;;;;8.98;7.00;;;;;;;1.88;79.86;97959.05;3717345;79;29862;-65
2021/01/24 01:35:47;;;;;;;14.47;8.13;;;;;;;1.80;80.35;97960.69;3693802;79;27020;-66
2021/01/24 01:40:51;;;;;;;24.23;13.18;;;;;;;1.68;80.87;97966.67;3679356;79;30138;-65
2021/01/24 01:45:53;;;;;;;15.15;11.85;;;;;;;1.75;81.04;97969.74;3664558;79;30144;-65
2021/01/24 01:50:57;;;;;;;20.40;13.28;;;;;;;1.80;80.66;97956.23;3654377;80;30090;-65
2021/01/24 01:55:59;;;;;;;18.07;13.47;;;;;;;1.84;80.52;97956.57;3648473;79;27772;-65
2021/01/24 02:01:05;;;;;;;23.73;13.50;;;;;;;1.82;80.10;97942.37;3681684;79;26742;-66
2021/01/24 02:06:37;;;;;;;17.95;12.10;;;;;;;1.82;79.86;97912.16;3676512;79;29286;-66
2021/01/24 02:12:01;;;;;;;18.60;13.00;;;;;;;1.84;79.96;97912.71;3465996;82;29969;-65
2021/01/24 02:17:10;;;;;;;19.60;12.25;;;;;;;1.86;80.04;97919.05;3393277;82;26251;-65
2021/01/24 02:22:15;;;;;;;18.95;11.08;;;;;;;1.85;80.53;97918.77;3546432;82;30107;-67
2021/01/24 02:28:01;;;;;;;25.10;15.83;;;;;;;1.81;80.38;97918.95;3527585;81;30195;-65
2021/01/24 02:33:11;;;;;;;25.80;18.07;;;;;;;1.83;80.28;97926.09;3447170;83;31127;-67
2021/01/24 02:38:18;;;;;;;21.73;13.18;;;;;;;1.89;80.15;97944.38;3515546;81;27573;-65
2021/01/24 02:43:23;;;;;;;17.87;12.60;;;;;;;1.84;80.14;97932.92;3545988;82;25875;-67
2021/01/24 02:48:25;;;;;;;29.82;17.00;;;;;;;1.72;80.41;97934.72;3512442;84;30149;-67
2021/01/24 02:53:31;;;;;;;24.32;15.15;;;;;;;1.71;80.77;97939.17;3511536;84;30134;-68
2021/01/24 02:58:43;;;;;;;26.87;17.03;;;;;;;1.79;80.62;97935.44;3677018;79;35082;-63
2021/01/24 03:03:47;;;;;;;21.60;13.62;;;;;;;1.78;80.79;97923.33;3604512;80;30089;-64
2021/01/24 03:08:50;;;;;;;29.05;17.05;;;;;;;1.67;80.73;97932.24;3649178;78;29923;-64
2021/01/24 03:14:13;;;;;;;110.03;49.23;;;;;;;1.64;80.71;97919.55;3687235;77;30000;-63
2021/01/24 03:19:33;;;;;;;32.73;20.27;;;;;;;1.78;80.66;97912.83;3582271;80;35210;-64
2021/01/24 03:24:38;;;;;;;28.42;17.40;;;;;;;1.79;81.23;97909.97;3586267;81;29938;-64
2021/01/24 03:29:40;;;;;;;27.67;14.68;;;;;;;1.86;80.75;97890.16;3566037;81;30284;-64
2021/01/24 03:34:43;;;;;;;40.50;17.50;;;;;;;1.76;80.31;97894.66;3595878;80;30308;-64
2021/01/24 03:39:46;;;;;;;24.52;15.90;;;;;;;1.82;80.53;97878.52;3590037;81;30063;-63
2021/01/24 03:44:50;;;;;;;25.30;14.30;;;;;;;1.85;80.48;97854.40;3599273;80;31214;-62
2021/01/24 03:49:54;;;;;;;21.37;13.35;;;;;;;1.78;80.70;97850.58;3492601;82;30725;-63
2021/01/24 03:54:57;;;;;;;29.82;15.55;;;;;;;1.71;81.18;97837.25;3456566;83;30130;-64
2021/01/24 04:00:01;;;;;;;18.85;13.93;;;;;;;1.74;81.14;97831.55;3602295;79;30261;-65
2021/01/24 04:05:06;;;;;;;28.15;17.77;;;;;;;1.64;81.24;97813.19;3631520;80;30217;-66
2021/01/24 04:10:11;;;;;;;24.77;14.63;;;;;;;1.59;80.97;97807.80;3633504;80;30293;-61
2021/01/24 04:15:17;;;;;;;30.90;19.30;;;;;;;1.60;81.12;97808.09;3485291;82;29422;-61
2021/01/24 04:20:18;;;;;;;21.95;14.93;;;;;;;1.65;80.78;97814.78;3475135;82;30352;-63
2021/01/24 04:25:23;;;;;;;22.58;13.93;;;;;;;1.56;81.20;97826.63;3463691;82;26795;-62
2021/01/24 04:30:27;;;;;;;18.85;12.07;;;;;;;1.51;81.54;97827.03;3484041;83;28451;-64
2021/01/24 04:35:30;;;;;;;26.65;16.52;;;;;;;1.45;81.45;97823.47;3516777;83;30289;-65
2021/01/24 04:40:33;;;;;;;28.07;15.63;;;;;;;1.42;81.87;97827.05;3522903;83;29248;-65
2021/01/24 04:45:36;;;;;;;24.15;15.38;;;;;;;1.41;82.11;97833.31;3618138;80;30128;-64
2021/01/24 04:50:39;;;;;;;26.17;14.60;;;;;;;;;;3618283;81;30085;-65
2021/01/24 04:55:43;;;;;;;28.17;16.07;;;;;;;1.32;82.23;97835.44;3617906;80;30204;-65
2021/01/24 05:00:46;;;;;;;23.83;15.95;;;;;;;1.39;82.26;97824.34;3618812;81;30652;-65
2021/01/24 05:05:49;;;;;;;25.37;14.90;;;;;;;1.53;82.04;97813.17;3618051;81;30147;-64
2021/01/24 05:10:55;;;;;;;16.10;12.10;;;;;;;1.57;82.10;97816.92;3618312;81;27289;-65
2021/01/24 05:16:00;;;;;;;33.60;19.83;;;;;;;;;;3616154;79;27158;-65
2021/01/24 05:21:12;;;;;;;42.33;20.13;;;;;;;1.52;82.00;97851.75;3681985;78;34768;-66
2021/01/24 05:26:15;;;;;;;32.53;18.02;;;;;;;1.50;82.04;97853.00;3662639;79;31153;-67
2021/01/24 05:31:22;;;;;;;31.97;19.92;;;;;;;1.46;82.26;97849.20;3662467;79;30702;-67
2021/01/24 05:36:26;;;;;;;35.03;20.70;;;;;;;1.42;82.59;97837.55;3662359;79;25984;-66
2021/01/24 05:41:31;;;;;;;33.00;16.93;;;;;;;1.52;82.06;97843.87;3662906;79;30149;-66
2021/01/24 05:46:35;;;;;;;32.80;20.57;;;;;;;1.63;81.63;97829.97;3661462;79;30620;-67
2021/01/24 05:51:38;;;;;;;33.55;18.67;;;;;;;1.62;81.47;97829.67;3661543;79;26610;-67
2021/01/24 05:56:41;;;;;;;40.85;24.75;;;;;;;1.54;81.98;97831.81;3639405;79;28782;-67
2021/01/24 06:01:45;;;;;;;40.10;22.75;;;;;;;1.65;81.83;97830.55;3660638;79;30001;-67
2021/01/24 06:06:52;;;;;;;42.78;22.95;;;;;;;1.61;81.39;97837.27;3659152;79;30179;-66
2021/01/24 06:11:55;;;;;;;36.73;21.20;;;;;;;1.56;81.63;97839.75;3653521;79;30310;-66
2021/01/24 06:17:02;;;;;;;39.78;22.98;;;;;;;1.49;81.80;97844.31;3629126;79;30220;-67
2021/01/24 06:22:12;;;;;;;35.90;23.18;;;;;;;1.47;82.24;97835.86;3626542;79;26144;-67
2021/01/24 06:27:20;;;;;;;36.42;21.37;;;;;;;1.53;81.96;97841.51;3668365;79;30363;-64
2021/01/24 06:32:30;;;;;;;36.38;21.57;;;;;;;1.54;82.07;97850.19;3657777;78;30161;-65
2021/01/24 06:37:36;;;;;;;41.65;22.15;;;;;;;1.53;82.19;97865.14;3654614;78;27323;-66
2021/01/24 06:43:02;;;;;;;35.68;20.43;;;;;;;1.55;82.00;97860.47;3653758;79;26491;-66
2021/01/24 06:48:07;;;;;;;35.25;21.35;;;;;;;1.59;82.46;97852.44;3651484;78;27262;-66
2021/01/24 06:53:26;;;;;;;29.27;18.40;;;;;;;1.65;82.08;97838.42;3653908;79;30893;-66
2021/01/24 06:58:37;;;;;;;36.70;20.48;;;;;;;1.47;82.31;97835.06;3694893;78;26838;-65
2021/01/24 07:03:40;;;;;;;28.52;18.30;;;;;;;1.37;82.89;97822.45;3673163;79;30205;-65
2021/01/24 07:08:43;;;;;;;31.85;20.27;;;;;;;1.52;82.75;97833.38;3688862;78;30118;-66
2021/01/24 07:13:45;;;;;;;27.25;18.40;;;;;;;1.53;82.57;97844.67;3686094;78;30594;-65
2021/01/24 07:18:49;;;;;;;41.40;21.90;;;;;;;1.47;82.68;97842.94;3691653;78;30484;-65
2021/01/24 07:23:51;;;;;;;28.60;17.90;;;;;;;1.42;82.50;97823.91;3626031;80;30465;-66
2021/01/24 07:28:53;;;;;;;29.80;17.15;;;;;;;1.44;82.52;97819.23;3690467;79;30265;-66
2021/01/24 07:33:57;;;;;;;31.48;17.85;;;;;;;1.46;82.42;97815.88;3669503;79;30676;-65
2021/01/24 07:39:00;;;;;;;38.87;20.53;;;;;;;1.47;82.46;97810.12;3672626;79;25885;-66
2021/01/24 07:44:06;;;;;;;26.55;15.60;;;;;;;1.47;82.31;97799.61;3666214;79;27388;-66
2021/01/24 07:49:09;;;;;;;28.23;15.60;;;;;;;1.52;81.98;97798.44;3666142;79;25979;-67
2021/01/24 07:54:15;;;;;;;26.42;15.30;;;;;;;1.54;82.46;97808.17;3670866;79;30201;-65
2021/01/24 07:59:18;;;;;;;29.98;16.05;;;;;;;1.56;82.23;97801.68;3655218;79;29350;-65
2021/01/24 08:04:26;;;;;;;33.90;20.13;;;;;;;1.51;82.91;97791.07;3669637;79;25908;-66
2021/01/24 08:09:38;;;;;;;27.23;15.23;;;;;;;1.62;82.43;97788.97;3623459;79;34971;-64
2021/01/24 08:14:41;;;;;;;29.18;17.62;;;;;;;1.59;82.15;97794.67;3576746;79;30222;-64
2021/01/24 08:19:46;;;;;;;28.42;17.73;;;;;;;1.63;82.37;97787.95;3553234;80;30332;-65
2021/01/24 08:24:49;;;;;;;25.72;19.45;;;;;;;1.60;82.45;97790.22;3602631;80;30556;-64
2021/01/24 08:29:52;;;;;;;24.37;18.20;;;;;;;1.66;81.95;97799.31;3592749;79;29235;-64
2021/01/24 08:34:55;;;;;;;29.20;18.02;;;;;;;1.67;82.10;97790.41;3568983;79;29211;-64
2021/01/24 08:39:58;;;;;;;28.35;18.37;;;;;;;1.59;82.17;97782.85;3506787;82;31393;-65
2021/01/24 08:45:01;;;;;;;29.82;19.27;;;;;;;1.56;82.49;97783.81;3539233;81;30971;-64
2021/01/24 08:50:10;;;;;;;28.37;18.87;;;;;;;1.60;82.27;97783.14;3586566;81;27275;-64
2021/01/24 08:55:15;;;;;;;29.92;15.43;;;;;;;1.61;81.88;97781.31;3593294;79;28453;-65
2021/01/24 09:00:20;;;;;;;27.15;17.62;;;;;;;1.56;81.91;97781.98;3634256;79;29802;-65
2021/01/24 09:05:35;;;;;;;28.65;18.67;;;;;;;1.56;81.87;97785.13;3642381;79;29474;-64
2021/01/24 09:10:38;;;;;;;28.30;16.52;;;;;;;1.60;81.40;97775.77;3598500;81;30124;-67
2021/01/24 09:15:42;;;;;;;33.55;21.52;;;;;;;1.57;81.50;97774.39;3624071;81;30291;-67
2021/01/24 09:20:46;;;;;;;28.87;18.52;;;;;;;1.62;81.85;97775.04;3622890;81;30288;-65
2021/01/24 09:25:49;;;;;;;27.00;16.30;;;;;;;1.51;81.66;97781.88;3623011;81;30464;-67
2021/01/24 09:30:53;;;;;;;33.10;18.62;;;;;;;1.54;81.61;97787.97;3622386;80;30347;-64
2021/01/24 09:35:59;;;;;;;31.20;18.63;;;;;;;1.50;81.02;97787.36;3622203;81;26684;-63
2021/01/24 09:41:02;;;;;;;33.38;19.85;;;;;;;1.41;81.21;97783.44;3620679;81;30170;-65
2021/01/24 09:46:05;;;;;;;36.08;21.35;;;;;;;1.43;81.69;97803.20;3599532;80;30597;-64
2021/01/24 09:56:26;;;;;;;37.13;19.60;;;;;;;1.64;81.13;97813.70;3730127;77;35138;-64
2021/01/24 10:01:29;;;;;;;32.67;20.43;;;;;;;1.58;81.06;97813.27;3676641;79;26386;-65
2021/01/24 10:06:33;;;;;;;28.85;21.07;;;;;;;1.43;81.19;97814.20;3682317;79;27817;-66
2021/01/24 10:11:37;;;;;;;34.38;19.77;;;;;;;1.46;81.34;97788.82;3690052;78;30767;-66
2021/01/24 10:16:41;;;;;;;24.12;15.70;;;;;;;1.53;81.26;97777.17;3672328;79;30163;-66
2021/01/24 10:21:49;;;;;;;32.30;18.85;;;;;;;1.58;81.27;97772.06;3601424;79;30171;-63
2021/01/24 10:26:53;;;;;;;34.92;20.55;;;;;;;1.62;81.20;97763.22;3660606;79;30247;-64
2021/01/24 10:31:56;;;;;;;29.07;19.45;;;;;;;1.66;81.06;97770.94;3658924;79;30694;-64
2021/01/24 10:37:00;;;;;;;31.00;16.67;;;;;;;1.69;80.56;97763.41;3703681;78;30173;-63
2021/01/24 10:42:04;;;;;;;29.23;17.20;;;;;;;1.72;80.27;97766.11;3701381;79;31067;-63
2021/01/24 10:47:07;;;;;;;26.80;16.50;;;;;;;1.79;80.23;97766.01;3645748;79;29173;-65
2021/01/24 10:52:11;;;;;;;33.10;18.52;;;;;;;1.74;79.98;97760.63;3658698;79;30674;-65
2021/01/24 10:57:15;;;;;;;31.40;18.07;;;;;;;1.85;79.53;97758.51;3662145;80;28976;-65
2021/01/24 11:02:19;;;;;;;28.30;17.15;;;;;;;1.89;79.39;97749.16;3658484;80;28480;-65
2021/01/24 11:07:27;;;;;;;27.55;15.13;;;;;;;1.91;79.90;97751.04;3647878;80;26430;-63
2021/01/24 11:12:31;;;;;;;33.33;20.12;;;;;;;1.91;80.22;97760.23;3646278;80;26268;-65
2021/01/24 11:17:35;;;;;;;31.60;20.92;;;;;;;1.97;79.74;97760.64;3650687;80;28400;-64
2021/01/24 11:22:40;;;;;;;33.73;21.42;;;;;;;2.04;79.39;97765.28;3661856;79;28306;-66
2021/01/24 11:27:42;;;;;;;32.83;24.23;;;;;;;2.00;79.42;97773.33;3661018;80;30423;-65
2021/01/24 11:32:47;;;;;;;30.23;20.95;;;;;;;1.89;79.84;97764.91;3659467;80;30488;-64
2021/01/24 11:37:51;;;;;;;40.83;22.87;;;;;;;1.93;80.16;97770.01;3660524;80;30159;-64
2021/01/24 11:42:55;;;;;;;35.78;22.58;;;;;;;1.98;79.46;97780.12;3660488;80;30135;-63
2021/01/24 11:47:58;;;;;;;41.58;22.37;;;;;;;1.92;79.80;97784.97;3657288;80;30075;-64
2021/01/24 11:53:00;;;;;;;31.87;18.37;;;;;;;1.85;80.29;97779.02;3560437;79;29311;-63
2021/01/24 11:58:03;;;;;;;38.35;22.07;;;;;;;1.79;80.23;97776.52;3524385;81;28636;-63
2021/01/24 12:03:06;;;;;;;31.52;19.73;;;;;;;1.81;80.43;97784.97;3548381;80;30189;-64
2021/01/24 12:08:09;;;;;;;32.33;21.85;;;;;;;1.93;80.45;97774.75;3582178;81;30138;-65
2021/01/24 12:13:13;;;;;;;39.85;20.57;;;;;;;2.02;80.31;97765.51;3611994;80;28373;-64
2021/01/24 12:18:16;;;;;;;34.45;18.87;;;;;;;2.09;80.34;97765.41;3611121;80;30230;-65
2021/01/24 12:23:20;;;;;;;41.10;23.95;;;;;;;2.07;80.40;97775.34;3624302;78;30045;-67
2021/01/24 12:28:25;;;;;;;35.13;19.37;;;;;;;2.21;79.77;97766.19;3651186;80;30247;-64
2021/01/24 12:33:28;;;;;;;39.35;22.95;;;;;;;2.27;79.87;97767.91;3637591;80;31127;-66
2021/01/24 12:38:30;;;;;;;36.48;20.82;;;;;;;2.38;79.04;97761.56;3570111;80;29697;-66
2021/01/24 12:43:33;;;;;;;27.30;17.33;;;;;;;2.44;80.07;97758.82;3473796;84;30231;-64
2021/01/24 12:48:39;;;;;;;39.48;21.50;;;;;;;2.46;79.14;97763.81;3444699;83;29991;-64
2021/01/24 12:53:43;;;;;;;44.13;23.67;;;;;;;2.40;79.55;97760.83;3539624;80;25957;-65
2021/01/24 12:58:46;;;;;;;39.70;22.13;;;;;;;2.53;79.00;97763.19;3587607;80;28219;-65
2021/01/24 13:03:49;;;;;;;27.30;15.90;;;;;;;2.56;79.00;97773.25;3577910;80;28450;-67
2021/01/24 13:08:53;;;;;;;32.10;18.52;;;;;;;2.56;78.62;97780.63;3582465;80;27336;-66
2021/01/24 13:13:57;;;;;;;27.95;17.12;;;;;;;2.58;78.75;97774.63;3608392;80;30141;-67
2021/01/24 13:19:00;;;;;;;36.88;20.15;;;;;;;2.61;78.69;97775.48;3573585;81;30140;-66
2021/01/24 13:24:06;;;;;;;36.13;19.92;;;;;;;2.59;78.92;97782.00;3622434;80;30648;-67
2021/01/24 13:29:11;;;;;;;23.77;15.70;;;;;;;2.59;78.37;97784.63;3574438;81;30252;-67
2021/01/24 13:34:13;;;;;;;29.65;18.27;;;;;;;2.49;78.29;97781.77;3587693;80;28742;-66
2021/01/24 13:39:16;;;;;;;37.35;19.70;;;;;;;2.33;78.73;97785.91;3591325;80;30090;-64
2021/01/24 13:44:20;;;;;;;27.87;17.82;;;;;;;2.27;79.73;97784.99;3509373;82;30087;-65
2021/01/24 13:49:23;;;;;;;42.30;25.23;;;;;;;2.27;80.24;97794.19;3590100;81;29571;-63
2021/01/24 13:54:27;;;;;;;42.43;23.50;;;;;;;2.31;80.00;97805.86;3605137;80;28371;-64
2021/01/24 13:59:34;;;;;;;33.40;19.90;;;;;;;2.30;79.90;97809.52;3599017;80;27351;-63
2021/01/24 14:04:38;;;;;;;29.13;14.53;;;;;;;2.26;79.87;97818.88;3610115;80;25922;-64
2021/01/24 14:09:42;;;;;;;37.50;21.20;;;;;;;2.18;80.02;97823.16;3606633;80;28442;-64
2021/01/24 14:14:46;;;;;;;39.10;22.73;;;;;;;2.08;80.51;97834.77;3617903;80;30618;-63
2021/01/24 14:20:09;;;;;;;39.05;21.15;;;;;;;2.07;80.59;97838.41;3612602;80;30696;-63
2021/01/24 14:25:13;;;;;;;33.73;20.88;;;;;;;2.05;80.88;97833.90;3656170;78;30113;-63
2021/01/24 14:30:17;;;;;;;9.68;5.75;;;;;;;1.97;81.05;97835.53;3616692;80;29192;-67
2021/01/24 14:35:21;;;;;;;39.70;23.10;;;;;;;1.78;81.71;97828.25;3617639;79;26197;-65
2021/01/24 14:40:24;;;;;;;33.75;19.90;;;;;;;1.80;81.85;97839.34;3553604;81;30279;-66
2021/01/24 14:45:28;;;;;;;33.90;20.50;;;;;;;1.83;81.76;97844.66;3550880;80;26007;-62
2021/01/24 14:50:32;;;;;;;33.27;18.47;;;;;;;1.78;82.02;97844.52;3606258;80;26399;-65
2021/01/24 14:55:34;;;;;;;33.48;19.90;;;;;;;1.74;82.51;97843.37;3594463;80;27397;-66
2021/01/24 15:00:37;;;;;;;30.32;17.62;;;;;;;1.74;82.65;97854.67;3598002;80;29289;-67
2021/01/24 15:05:40;;;;;;;29.85;17.42;;;;;;;1.80;82.49;97854.30;3611831;80;30187;-66
2021/01/24 15:10:43;;;;;;;37.73;16.80;;;;;;;1.71;82.44;97863.00;3610282;80;30192;-65
2021/01/24 15:15:44;;;;;;;27.10;16.75;;;;;;;1.59;82.46;97869.52;3613547;80;30346;-64
2021/01/24 15:20:47;;;;;;;28.97;16.43;;;;;;;1.54;82.14;97877.25;3593147;80;25947;-64
2021/01/24 15:25:51;;;;;;;27.02;14.20;;;;;;;1.54;81.63;97877.76;3531593;81;26922;-64
2021/01/24 15:30:54;;;;;;;17.65;10.88;;;;;;;1.50;81.83;97885.31;3535515;81;28258;-66
2021/01/24 15:36:00;;;;;;;25.52;13.72;;;;;;;1.45;81.86;97900.92;3608721;79;29293;-67
2021/01/24 15:41:02;;;;;;;26.40;14.53;;;;;;;1.49;82.24;97900.77;3594029;80;29827;-67
2021/01/24 15:46:05;;;;;;;27.62;12.70;;;;;;;1.49;82.31;97885.52;3507088;81;30354;-68
2021/01/24 15:51:07;;;;;;;26.50;14.00;;;;;;;1.49;82.50;97894.72;3538312;80;25895;-67
2021/01/24 15:56:12;;;;;;;22.23;12.53;;;;;;;1.44;82.58;97888.81;3522471;80;26523;-67
2021/01/24 16:01:15;;;;;;;23.40;13.05;;;;;;;1.45;82.52;97890.92;3507901;81;29167;-67
2021/01/24 16:06:18;;;;;;;16.95;9.20;;;;;;;1.35;82.82;97891.44;3551889;80;30247;-63
2021/01/24 16:11:22;;;;;;;17.45;11.65;;;;;;;1.20;82.59;97901.02;3528928;80;30724;-64
2021/01/24 16:16:27;;;;;;;20.50;13.20;;;;;;;1.22;82.13;97912.61;3490814;80;26930;-64
2021/01/24 16:21:30;;;;;;;17.55;12.15;;;;;;;1.30;82.42;97916.23;3560127;80;27373;-65
2021/01/24 16:26:34;;;;;;;18.75;10.20;;;;;;;1.33;82.28;97915.28;3576485;80;29957;-64
2021/01/24 16:31:38;;;;;;;20.43;11.70;;;;;;;1.36;82.47;97914.05;3578168;81;30775;-64
2021/01/24 16:36:50;;;;;;;21.50;11.50;;;;;;;1.30;82.60;97917.54;3615601;78;25982;-62
2021/01/24 16:41:56;;;;;;;131.50;69.58;;;;;;;1.36;82.61;97912.73;3609563;78;28425;-62
2021/01/24 16:47:00;;;;;;;28.13;17.23;;;;;;;1.32;82.41;97916.30;3600407;78;26085;-64
2021/01/24 16:52:03;;;;;;;34.87;19.10;;;;;;;1.34;82.77;97907.70;3631321;79;27596;-64
2021/01/24 16:57:06;;;;;;;35.85;20.97;;;;;;;1.31;82.46;97904.20;3651423;79;30136;-67
2021/01/24 17:02:11;;;;;;;35.05;19.37;;;;;;;1.37;82.34;97915.65;3621958;79;30121;-64
2021/01/24 17:07:14;;;;;;;34.58;17.67;;;;;;;1.39;82.39;97917.55;3656271;78;30348;-66
2021/01/24 17:12:18;;;;;;;38.83;22.13;;;;;;;1.35;82.46;97919.00;3644366;79;25870;-67
2021/01/24 17:17:21;;;;;;;39.65;21.95;;;;;;;1.34;82.69;97919.52;3610159;80;30173;-67
2021/01/24 17:22:26;;;;;;;40.73;18.23;;;;;;;1.39;82.53;97913.61;3609908;78;29958;-69
2021/01/24 17:27:28;;;;;;;38.15;23.10;;;;;;;1.37;82.32;97917.47;3664065;77;31604;-64
2021/01/24 17:32:31;;;;;;;44.88;22.10;;;;;;;1.31;82.63;97909.45;3660951;78;30097;-63
2021/01/24 17:37:33;;;;;;;23.98;15.55;;;;;;;1.32;82.69;97914.19;3693772;77;30117;-67
2021/01/24 17:42:36;;;;;;;28.90;16.90;;;;;;;1.38;82.37;97909.38;3672548;77;30530;-72
2021/01/24 17:47:39;;;;;;;31.90;17.70;;;;;;;1.33;82.51;97913.97;3706075;77;30267;-66
2021/01/24 17:52:42;;;;;;;35.13;21.30;;;;;;;1.32;82.42;97908.94;3734371;77;30556;-69
2021/01/24 17:57:47;;;;;;;31.60;21.23;;;;;;;1.29;82.68;97898.37;3740778;77;26510;-67
2021/01/24 18:02:50;;;;;;;33.60;19.17;;;;;;;1.32;82.43;97891.88;3739329;77;26490;-66
2021/01/24 18:07:53;;;;;;;24.82;16.55;;;;;;;1.32;82.41;97876.13;3690777;77;26607;-70
2021/01/24 18:12:57;;;;;;;29.60;17.42;;;;;;;1.30;82.53;97867.67;3734038;77;30323;-68
2021/01/24 18:18:03;;;;;;;30.43;17.50;;;;;;;1.29;82.25;97878.68;3738823;77;29372;-67
2021/01/24 18:23:06;;;;;;;29.27;18.40;;;;;;;1.33;82.22;97889.55;3727032;77;30306;-68
2021/01/24 18:28:10;;;;;;;27.90;16.42;;;;;;;1.33;82.36;97891.66;3676555;78;26343;-72
2021/01/24 18:33:14;;;;;;;30.67;16.87;;;;;;;1.30;82.20;97891.30;3680924;78;26289;-72
2021/01/24 18:38:22;;;;;;;28.17;16.10;;;;;;;1.33;81.75;97883.78;3637862;78;26121;-68
2021/01/24 18:43:28;;;;;;;31.97;17.12;;;;;;;1.34;81.98;97885.89;3696893;77;25926;-72
2021/01/24 18:48:31;;;;;;;31.62;16.95;;;;;;;1.29;82.19;97889.17;3705421;79;30902;-69
2021/01/24 18:53:35;;;;;;;34.10;18.80;;;;;;;1.28;82.50;97884.14;3663193;78;28244;-70
2021/01/24 18:58:38;;;;;;;32.63;19.07;;;;;;;1.31;82.16;97878.46;3696450;77;29564;-70
2021/01/24 19:03:40;;;;;;;27.63;15.70;;;;;;;1.28;82.34;97880.21;3696108;78;26557;-67
2021/01/24 19:08:44;;;;;;;34.10;19.70;;;;;;;1.21;82.57;97878.20;3693688;78;26035;-68
2021/01/24 19:13:47;;;;;;;34.88;19.73;;;;;;;1.25;82.57;97882.77;3675535;77;29595;-66
2021/01/24 19:18:50;;;;;;;27.93;15.37;;;;;;;1.28;82.58;97881.52;3636600;77;25954;-65
2021/01/24 19:23:56;;;;;;;35.20;20.48;;;;;;;1.20;82.82;97886.58;3659632;78;28535;-68
2021/01/24 19:29:00;;;;;;;36.90;20.35;;;;;;;1.16;83.22;97884.61;3655780;78;30163;-66
2021/01/24 19:34:06;;;;;;;32.15;19.55;;;;;;;1.20;82.99;97883.16;3668014;77;29122;-64
2021/01/24 19:39:11;;;;;;;39.73;21.52;;;;;;;1.19;83.09;97883.66;3692033;77;29960;-68
2021/01/24 19:44:14;;;;;;;33.65;19.92;;;;;;;1.19;83.09;97881.55;3627839;78;26492;-64
2021/01/24 19:49:19;;;;;;;32.93;19.10;;;;;;;1.20;83.02;97881.84;3556342;81;29337;-68
2021/01/24 19:54:22;;;;;;;41.90;22.97;;;;;;;1.29;82.85;97879.19;3590378;77;26326;-67
2021/01/24 19:59:27;;;;;;;47.27;21.50;;;;;;;1.35;82.64;97881.73;3642588;78;28001;-70
2021/01/24 20:04:31;;;;;;;39.23;22.27;;;;;;;1.32;82.65;97893.19;3511164;80;26495;-68
2021/01/24 20:09:34;;;;;;;33.83;18.60;;;;;;;1.30;82.96;97896.03;3610724;80;26083;-64
2021/01/24 20:14:38;;;;;;;33.23;20.70;;;;;;;1.33;82.74;97898.73;3596681;80;26627;-67
2021/01/24 20:19:44;;;;;;;34.80;20.03;;;;;;;1.32;82.74;97897.13;3623623;80;26075;-66
2021/01/24 20:24:50;;;;;;;37.03;21.82;;;;;;;1.29;82.74;97891.80;3644991;78;25907;-65
2021/01/24 20:29:54;;;;;;;37.07;19.43;;;;;;;1.27;82.89;97903.55;3681680;78;26704;-68
2021/01/24 20:34:59;;;;;;;33.80;19.62;;;;;;;1.31;82.66;97909.45;3626064;79;25805;-66
2021/01/24 20:40:03;;;;;;;35.35;18.87;;;;;;;1.27;82.65;97902.23;3650169;78;26267;-66
2021/01/24 20:45:10;;;;;;;38.60;20.82;;;;;;;1.18;83.16;97911.44;3685258;78;26731;-69
2021/01/24 20:50:18;;;;;;;36.03;20.35;;;;;;;1.15;83.40;97899.55;3659250;77;25889;-67
2021/01/24 20:55:22;;;;;;;38.43;16.83;;;;;;;1.25;83.06;97906.89;3617670;80;32678;-65
2021/01/24 21:00:30;;;;;;;40.40;19.17;;;;;;;1.21;83.03;97910.49;3657210;79;26541;-65
2021/01/24 21:05:36;;;;;;;40.27;20.03;;;;;;;1.16;83.13;97909.03;3638660;79;25937;-66
2021/01/24 21:10:43;;;;;;;33.08;17.30;;;;;;;1.21;82.83;97909.69;3582903;80;25822;-66
2021/01/24 21:15:47;;;;;;;20.45;11.60;;;;;;;1.15;82.51;97910.56;3650037;78;28370;-67
2021/01/24 21:20:52;;;;;;;28.67;15.25;;;;;;;1.05;82.60;97911.57;3683129;78;30311;-65
2021/01/24 21:25:58;;;;;;;29.70;15.48;;;;;;;0.96;82.25;97903.98;3675847;78;29800;-64
2021/01/24 21:31:05;;;;;;;16.48;9.13;;;;;;;0.96;82.91;97914.47;3626658;78;25874;-66
2021/01/24 21:36:10;;;;;;;26.42;13.98;;;;;;;0.91;83.31;97912.23;3564130;80;29987;-66
2021/01/24 21:41:18;;;;;;;26.62;13.35;;;;;;;0.98;82.93;97915.05;3625487;80;30273;-65
2021/01/24 21:46:23;;;;;;;27.57;12.87;;;;;;;1.06;82.86;97923.67;3585474;81;25959;-63
2021/01/24 21:51:29;;;;;;;23.53;12.00;;;;;;;1.09;82.61;97926.66;3598680;80;35170;-66
2021/01/24 21:56:35;;;;;;;19.93;13.53;;;;;;;1.09;82.60;97936.36;3582796;80;25886;-66
2021/01/24 22:01:41;;;;;;;21.43;12.30;;;;;;;1.05;82.73;97929.94;3665749;79;26733;-65
2021/01/24 22:06:45;;;;;;;17.43;12.33;;;;;;;1.10;82.74;97932.72;3647195;79;25894;-67
2021/01/24 22:11:52;;;;;;;22.02;11.05;;;;;;;1.14;82.54;97939.13;3582538;80;28230;-63
2021/01/24 22:16:58;;;;;;;20.33;12.87;;;;;;;1.14;82.66;97938.62;3622725;80;25908;-67
2021/01/24 22:22:05;;;;;;;21.10;13.78;;;;;;;1.13;82.35;97939.64;3622676;78;28303;-67
2021/01/24 22:27:11;;;;;;;25.13;11.27;;;;;;;1.18;82.53;97943.73;3592418;80;25890;-66
2021/01/24 22:32:16;;;;;;;22.13;12.53;;;;;;;1.16;82.59;97948.40;3678227;79;32669;-66
2021/01/24 22:37:20;;;;;;;17.87;12.57;;;;;;;1.14;82.96;97943.87;3681883;79;26112;-68
2021/01/24 22:42:24;;;;;;;19.05;12.05;;;;;;;1.22;82.72;97950.66;3682265;79;28482;-68
2021/01/24 22:47:28;;;;;;;13.85;9.15;;;;;;;1.25;82.58;97954.14;3608584;80;26302;-68
2021/01/24 22:52:32;;;;;;;16.93;12.17;;;;;;;1.23;82.62;97953.05;3654695;79;26181;-67
2021/01/24 22:57:36;;;;;;;18.70;11.77;;;;;;;1.20;82.75;97948.26;3652649;79;25925;-68
2021/01/24 23:02:41;;;;;;;14.93;10.55;;;;;;;1.27;82.86;97948.97;3668281;79;28294;-68
2021/01/24 23:07:43;;;;;;;20.15;10.70;;;;;;;1.28;82.60;97947.95;3669560;79;28275;-66
2021/01/24 23:12:46;;;;;;;18.00;11.27;;;;;;;1.26;82.86;97942.63;3682409;79;26392;-67
2021/01/24 23:17:51;;;;;;;15.55;11.60;;;;;;;1.25;83.30;97943.13;3680256;79;28330;-64
2021/01/24 23:22:54;;;;;;;9.57;6.23;;;;;;;1.28;82.93;97942.70;3659465;79;25955;-67
2021/01/24 23:27:59;;;;;;;16.23;11.53;;;;;;;1.20;83.61;97935.13;3626422;80;26308;-69
2021/01/24 23:33:02;;;;;;;19.75;12.95;;;;;;;1.22;83.55;97927.05;3625554;79;30092;-67
2021/01/24 23:38:06;;;;;;;14.73;9.83;;;;;;;1.30;83.47;97935.91;3631151;79;30403;-67
2021/01/24 23:43:09;;;;;;;17.32;10.32;;;;;;;1.26;83.43;97934.75;3634063;79;28028;-65
2021/01/24 23:48:12;;;;;;;15.55;11.15;;;;;;;1.23;83.67;97946.99;3633589;79;30602;-64